Time;durP1;ratioP1;P1;durP2;ratioP2;P2;SDS_P1;SDS_P2;PMS_P1;PMS_P2;Temp;Humidity;BMP_temperature;BMP_pressure;BME280_temperature;BME280_humidity;BME280_pressure;Samples;Min_cycle;Max_cycle;Signal;HPM_P1;HPM_P2
2022/04/29 07:24:18;;;;;;;22.13;6.87;;;;;;;38.52;40.18;100967.34;5590344;24;21036;-69
2022/04/29 07:26:44;;;;;;;13.60;5.60;;;;;;;38.44;40.32;100968.09;4816210;29;20459;-69
2022/04/29 07:29:11;;;;;;;17.80;6.47;;;;;;;38.40;40.39;100977.94;4819913;29;20450;-69
2022/04/29 07:31:37;;;;;;;13.10;5.40;;;;;;;38.39;40.30;100979.06;4830491;29;20420;-79
2022/04/29 07:34:03;;;;;;;12.00;5.80;;;;;;;38.37;40.80;100979.38;4822737;29;20511;-72
2022/04/29 07:41:58;;;;;;;24.40;6.30;;;;;;;38.43;40.51;100972.72;4806519;29;20582;-70
2022/04/29 07:44:24;;;;;;;11.93;5.07;;;;;;;38.40;40.99;100977.94;4821774;29;20950;-71
2022/04/29 07:46:50;;;;;;;19.33;6.13;;;;;;;38.49;40.73;100981.53;4810029;29;20854;-71
2022/04/29 07:49:16;;;;;;;13.60;5.20;;;;;;;38.44;40.42;100971.63;4823726;29;20804;-74
2022/04/29 07:51:43;;;;;;;12.60;5.77;;;;;;;38.43;40.39;100978.16;4823473;29;20957;-72
2022/04/29 07:54:10;;;;;;;13.20;5.37;;;;;;;38.41;40.56;100974.13;4820080;29;20487;-72
2022/04/29 07:56:37;;;;;;;12.17;6.60;;;;;;;38.44;40.63;100985.16;4807026;29;20489;-71
2022/04/29 07:59:03;;;;;;;11.07;6.67;;;;;;;38.50;40.92;100972.28;4818345;29;20499;-69
2022/04/29 08:01:30;;;;;;;10.47;4.97;;;;;;;38.60;40.37;100972.03;4802997;29;20550;-70
2022/04/29 08:03:58;;;;;;;13.60;4.50;;;;;;;38.60;40.12;100973.94;4818698;29;20470;-71
2022/04/29 08:06:25;;;;;;;10.10;5.33;;;;;;;38.54;40.05;100975.97;4819842;29;20471;-70
2022/04/29 08:08:51;;;;;;;13.13;5.53;;;;;;;38.48;40.27;100984.53;4807181;29;20560;-71
2022/04/29 08:11:17;;;;;;;16.97;5.60;;;;;;;38.54;40.40;100977.88;4806188;29;20462;-71
2022/04/29 08:13:44;;;;;;;9.20;5.37;;;;;;;38.60;40.32;100976.66;4818691;29;20498;-70
2022/04/29 08:16:11;;;;;;;16.83;5.07;;;;;;;38.53;40.18;100982.50;4800079;29;21133;-71
2022/04/29 08:18:37;;;;;;;13.73;6.37;;;;;;;38.60;40.57;100980.16;4819098;29;20461;-71
2022/04/29 08:21:04;;;;;;;13.77;5.17;;;;;;;38.57;40.14;100980.00;4802525;29;20871;-71
2022/04/29 08:23:30;;;;;;;10.73;5.73;;;;;;;38.61;40.04;100979.06;4817655;29;20431;-70
2022/04/29 08:25:59;;;;;;;15.70;5.40;;;;;;;38.67;40.22;100985.16;4817584;29;20494;-71
2022/04/29 08:28:26;;;;;;;13.57;4.70;;;;;;;38.65;40.12;100990.09;4805348;29;20549;-69
2022/04/29 08:30:52;;;;;;;10.23;4.60;;;;;;;38.61;40.59;100989.09;4805852;29;20466;-69
2022/04/29 08:33:19;;;;;;;15.07;6.80;;;;;;;38.60;40.20;100993.72;4820213;29;20438;-68
2022/04/29 08:35:45;;;;;;;18.67;5.80;;;;;;;38.65;40.40;101003.66;4819209;29;20453;-68
2022/04/29 08:38:11;;;;;;;16.87;5.10;;;;;;;38.66;40.33;101005.25;4809474;29;20471;-69
2022/04/29 08:40:43;;;;;;;11.27;4.60;;;;;;;38.70;40.27;101015.16;4828231;29;21077;-68
2022/04/29 08:43:14;;;;;;;14.63;5.90;;;;;;;38.73;40.26;101013.78;4804468;29;20431;-69
2022/04/29 08:45:42;;;;;;;11.17;5.60;;;;;;;38.68;39.95;101014.69;4820435;29;20935;-69
2022/04/29 08:48:09;;;;;;;10.93;5.03;;;;;;;38.72;39.59;101012.19;4820165;29;20438;-69
2022/04/29 08:50:35;;;;;;;10.60;3.87;;;;;;;38.75;39.96;101013.50;4819609;29;20430;-69
2022/04/29 08:53:02;;;;;;;8.33;4.20;;;;;;;38.74;39.97;101012.69;4819319;29;20469;-73
2022/04/29 09:01:03;;;;;;;9.47;5.00;;;;;;;38.75;40.08;101016.19;4804739;29;20465;-69
2022/04/29 09:03:30;;;;;;;9.33;5.47;;;;;;;38.74;39.73;101011.88;4805794;29;20438;-69
2022/04/29 09:05:57;;;;;;;7.70;4.20;;;;;;;38.62;40.50;101010.50;4818858;29;20504;-70
2022/04/29 09:08:24;;;;;;;11.77;5.13;;;;;;;38.54;40.56;101010.41;4807126;29;20410;-69
2022/04/29 09:10:58;;;;;;;11.67;5.17;;;;;;;38.62;40.50;101023.25;4809654;29;20438;-69
2022/04/29 09:13:26;;;;;;;12.60;4.97;;;;;;;38.72;40.37;101023.03;4815193;29;20963;-68
2022/04/29 09:15:54;;;;;;;8.63;4.40;;;;;;;38.77;40.60;101031.03;4804014;29;20491;-69
2022/04/29 09:18:40;;;;;;;11.10;4.60;;;;;;;38.70;40.63;101028.72;4819237;29;20435;-71
2022/04/29 09:21:12;;;;;;;9.03;5.17;;;;;;;38.74;40.51;101030.88;4803932;29;20478;-69
2022/04/29 09:23:42;;;;;;;17.43;5.60;;;;;;;38.74;40.56;101028.16;4803902;29;20439;-71
2022/04/29 09:26:26;;;;;;;14.90;4.83;;;;;;;38.76;40.41;101037.56;4805654;29;21011;-70
2022/04/29 09:29:20;;;;;;;14.33;5.40;;;;;;;38.78;40.54;101037.25;4815118;29;20958;-68
2022/04/29 09:31:54;;;;;;;11.47;4.97;;;;;;;38.74;40.43;101039.81;4821374;29;20973;-70
2022/04/29 09:34:21;;;;;;;13.13;5.83;;;;;;;38.77;40.47;101036.47;4821663;29;20465;-69
2022/04/29 09:36:47;;;;;;;11.00;5.07;;;;;;;38.81;40.52;101040.16;4812703;29;20433;-71
2022/04/29 09:39:32;;;;;;;14.13;5.27;;;;;;;38.83;40.27;101042.56;4804851;29;20431;-68
2022/04/29 09:42:00;;;;;;;16.03;5.03;;;;;;;38.83;40.18;101043.38;4804815;29;20838;-71
2022/04/29 09:44:31;;;;;;;12.80;6.10;;;;;;;38.86;40.06;101041.97;4822386;29;20460;-71
2022/04/29 09:47:10;;;;;;;11.37;4.73;;;;;;;38.88;39.97;101047.88;4821591;29;20533;-70
2022/04/29 09:49:37;;;;;;;12.90;4.93;;;;;;;38.88;40.18;101048.66;4828434;29;20864;-68
2022/04/29 09:52:07;;;;;;;15.83;4.63;;;;;;;38.96;40.03;101056.06;4823930;29;20486;-70
2022/04/29 09:54:37;;;;;;;10.53;4.67;;;;;;;38.95;40.12;101050.94;4822159;29;20461;-70
2022/04/29 09:57:11;;;;;;;11.03;5.70;;;;;;;38.92;40.32;101055.09;4814418;29;20444;-70
2022/04/29 09:59:40;;;;;;;11.63;4.80;;;;;;;38.91;40.46;101052.66;4811697;29;20445;-68
2022/04/29 10:02:07;;;;;;;15.63;5.23;;;;;;;39.01;40.94;101057.06;4807987;29;20468;-69
2022/04/29 10:04:36;;;;;;;8.13;4.93;;;;;;;39.00;40.71;101050.84;4821633;29;20472;-73
2022/04/29 10:07:08;;;;;;;15.77;5.17;;;;;;;38.91;41.01;101053.47;4821456;29;20434;-68
2022/04/29 10:09:40;;;;;;;14.20;5.60;;;;;;;38.92;40.65;101055.09;4819983;29;20433;-69
2022/04/29 10:12:13;;;;;;;15.00;4.97;;;;;;;39.04;40.82;101054.53;4818548;29;20528;-67
2022/04/29 10:14:40;;;;;;;15.63;6.00;;;;;;;39.04;40.68;101057.25;4810041;29;20442;-67
2022/04/29 10:22:53;;;;;;;9.97;4.90;;;;;;;39.14;40.43;101051.56;4802303;29;21074;-68
2022/04/29 10:25:25;;;;;;;6.93;4.40;;;;;;;39.11;40.69;101054.09;4801629;29;20481;-68
2022/04/29 10:27:53;;;;;;;21.93;4.93;;;;;;;39.13;40.46;101051.88;4822653;29;20453;-70
2022/04/29 10:30:35;;;;;;;9.37;4.80;;;;;;;39.11;40.52;101054.09;4815951;29;20441;-70
2022/04/29 10:33:03;;;;;;;13.83;5.53;;;;;;;39.01;40.50;101057.06;4793536;29;20445;-70
2022/04/29 10:35:53;;;;;;;8.43;4.17;;;;;;;39.06;40.48;101059.66;4818803;29;20502;-70
2022/04/29 10:38:19;;;;;;;17.63;4.27;;;;;;;39.04;40.31;101059.13;4813787;29;20878;-69
2022/04/29 10:40:50;;;;;;;12.03;5.23;;;;;;;39.03;40.74;101057.53;4809051;29;21052;-70
2022/04/29 10:43:18;;;;;;;10.50;4.67;;;;;;;39.03;41.12;101066.47;4819865;29;20573;-70
2022/04/29 10:46:08;;;;;;;7.93;3.83;;;;;;;39.08;40.71;101058.22;4819518;29;20436;-69
2022/04/29 10:48:39;;;;;;;11.40;4.40;;;;;;;39.03;40.77;101052.09;4819767;29;20779;-69
2022/04/29 10:51:11;;;;;;;11.63;4.57;;;;;;;39.09;41.14;101048.97;4819748;29;20460;-67
2022/04/29 10:53:42;;;;;;;10.73;4.03;;;;;;;39.17;40.41;101045.53;4820734;29;20433;-70
2022/04/29 10:56:27;;;;;;;13.37;5.13;;;;;;;39.11;40.21;101038.63;4822794;29;20482;-67
2022/04/29 10:58:54;;;;;;;8.03;4.10;;;;;;;39.16;40.32;101030.34;4821242;29;20429;-70
2022/04/29 11:01:24;;;;;;;14.23;4.87;;;;;;;39.15;40.29;101036.06;4820698;29;20473;-67
2022/04/29 11:03:50;;;;;;;12.60;5.60;;;;;;;39.01;40.51;101030.72;4820664;29;20966;-68
2022/04/29 11:06:17;;;;;;;14.27;5.73;;;;;;;39.11;40.72;101030.47;4821149;29;20946;-67
2022/04/29 11:08:48;;;;;;;8.40;4.17;;;;;;;39.05;40.72;101029.00;4825895;29;20898;-67
2022/04/29 11:11:14;;;;;;;8.40;4.43;;;;;;;39.14;40.45;101019.00;4824440;29;20898;-70
2022/04/29 11:13:47;;;;;;;12.53;5.27;;;;;;;39.24;40.69;101026.09;4824305;29;20528;-67
2022/04/29 11:16:19;;;;;;;10.83;4.43;;;;;;;39.21;40.60;101024.81;4825410;29;20870;-68
2022/04/29 11:19:05;;;;;;;8.10;4.63;;;;;;;39.26;40.51;101025.78;4824545;29;20476;-68
2022/04/29 11:24:42;;;;;;;10.53;5.80;;;;;;;39.33;40.17;101016.09;4759230;30;20491;-71
2022/04/29 11:27:09;;;;;;;17.07;4.90;;;;;;;39.30;40.39;101013.22;4754510;30;20472;-70
2022/04/29 11:29:45;;;;;;;9.17;4.63;;;;;;;39.22;40.63;101015.53;4788899;29;20445;-70
2022/04/29 11:32:12;;;;;;;7.20;3.93;;;;;;;39.27;40.67;101011.09;4823936;29;20453;-70
2022/04/29 11:35:04;;;;;;;15.90;5.73;;;;;;;39.32;40.42;101011.78;4824452;29;20422;-67
2022/04/29 11:37:34;;;;;;;12.53;5.00;;;;;;;39.26;40.27;101001.38;4810038;29;20425;-66
2022/04/29 11:40:05;;;;;;;11.60;3.83;;;;;;;39.33;40.32;100999.81;4824387;29;20464;-70
2022/04/29 11:42:32;;;;;;;10.00;4.90;;;;;;;39.31;40.48;100995.81;4824310;29;20418;-70
2022/04/29 11:45:08;;;;;;;8.93;3.70;;;;;;;39.35;40.87;100996.75;4824287;29;20441;-70
2022/04/29 11:47:36;;;;;;;12.53;5.20;;;;;;;39.45;40.27;100993.78;4809363;29;20493;-70
2022/04/29 11:50:03;;;;;;;11.17;4.63;;;;;;;39.47;40.38;100991.53;4822558;29;20441;-70
2022/04/29 11:52:30;;;;;;;9.90;4.20;;;;;;;39.44;40.09;100993.00;4823421;29;20445;-68
2022/04/29 11:55:04;;;;;;;10.93;4.80;;;;;;;39.44;40.43;100992.19;4824225;29;20429;-68
2022/04/29 11:57:34;;;;;;;21.60;4.70;;;;;;;39.42;40.50;100987.09;4823561;29;20923;-68
2022/04/29 12:00:03;;;;;;;32.00;26.33;;;;;;;39.44;39.80;100984.84;4824003;29;20457;-68
2022/04/29 12:02:29;;;;;;;19.33;15.03;;;;;;;39.41;39.30;100990.09;4825310;29;20409;-68
2022/04/29 12:05:00;;;;;;;38.63;28.57;;;;;;;39.39;39.71;100979.56;4825209;29;20895;-68
2022/04/29 12:07:29;;;;;;;45.53;36.27;;;;;;;39.45;39.91;100972.06;4823952;29;20428;-68
2022/04/29 12:09:56;;;;;;;49.77;37.97;;;;;;;39.44;40.08;100973.19;4822100;29;20456;-70
2022/04/29 12:12:30;;;;;;;31.97;21.40;;;;;;;39.32;40.65;100971.06;4820940;29;20434;-71
2022/04/29 12:15:01;;;;;;;30.83;17.20;;;;;;;39.35;40.58;100967.75;4820823;29;20438;-71
2022/04/29 12:17:36;;;;;;;26.10;13.07;;;;;;;39.41;40.17;100971.91;4820866;29;20509;-71
2022/04/29 12:20:04;;;;;;;17.77;10.77;;;;;;;39.47;40.29;100961.69;4822447;29;20515;-69
2022/04/29 12:22:34;;;;;;;16.67;9.17;;;;;;;39.55;40.29;100963.66;4823772;29;20426;-71
2022/04/29 12:25:19;;;;;;;15.00;7.37;;;;;;;39.53;40.73;100970.50;4822920;29;20492;-69
2022/04/29 12:27:45;;;;;;;17.10;7.30;;;;;;;39.59;39.96;100970.03;4822526;29;20433;-69
2022/04/29 12:36:25;;;;;;;15.40;7.90;;;;;;;39.71;39.71;100962.09;4821764;29;20421;-67
2022/04/29 12:38:51;;;;;;;18.40;6.40;;;;;;;39.69;39.69;100958.13;4817038;29;21015;-67
2022/04/29 12:41:29;;;;;;;20.70;6.33;;;;;;;39.69;39.35;100952.69;4815224;29;20512;-69
2022/04/29 12:47:21;;;;;;;11.23;5.47;;;;;;;39.76;39.46;100939.44;4813096;29;20509;-68
2022/04/29 12:49:47;;;;;;;17.60;4.93;;;;;;;39.60;39.86;100932.84;4822398;29;20433;-70
2022/04/29 12:52:13;;;;;;;7.40;4.20;;;;;;;39.58;39.47;100929.63;4820760;29;20560;-68
2022/04/29 12:54:39;;;;;;;9.00;4.77;;;;;;;39.57;39.08;100920.69;4804112;29;20426;-68
2022/04/29 12:57:06;;;;;;;14.17;4.20;;;;;;;39.65;39.19;100924.56;4819045;29;20428;-68
2022/04/29 12:59:36;;;;;;;18.10;6.10;;;;;;;39.88;38.77;100911.66;4806064;29;20524;-70
2022/04/29 13:02:07;;;;;;;15.63;5.67;;;;;;;39.91;39.00;100900.97;4805122;29;20829;-69
2022/04/29 13:04:34;;;;;;;10.80;4.60;;;;;;;40.01;38.60;100894.41;4804984;29;20954;-69
2022/04/29 13:07:00;;;;;;;15.97;6.23;;;;;;;40.01;38.66;100887.03;4805421;29;21002;-70
2022/04/29 13:09:26;;;;;;;12.37;5.37;;;;;;;40.15;38.12;100875.25;4818251;29;20950;-70
2022/04/29 13:11:53;;;;;;;15.53;5.23;;;;;;;40.22;37.59;100873.66;4818239;29;20430;-71
2022/04/29 13:14:19;;;;;;;11.47;4.10;;;;;;;40.21;38.05;100873.97;4818417;29;20947;-69
2022/04/29 13:16:47;;;;;;;13.23;4.77;;;;;;;40.24;37.87;100855.09;4803186;29;20419;-71
2022/04/29 13:19:13;;;;;;;15.63;4.73;;;;;;;40.25;38.06;100843.09;4804402;29;20410;-70
2022/04/29 13:21:39;;;;;;;13.73;5.17;;;;;;;40.32;37.70;100842.59;4818311;29;20995;-70
2022/04/29 13:24:06;;;;;;;14.40;5.13;;;;;;;40.34;37.61;100842.31;4819496;29;20449;-69
2022/04/29 13:26:32;;;;;;;12.53;4.70;;;;;;;40.31;37.14;100845.66;4819689;29;20504;-69
2022/04/29 13:28:58;;;;;;;8.67;4.63;;;;;;;40.31;37.82;100851.88;4804633;29;20442;-70
2022/04/29 13:31:24;;;;;;;13.40;5.77;;;;;;;40.29;37.93;100846.78;4818819;29;20534;-71
2022/04/29 13:33:50;;;;;;;13.20;6.30;;;;;;;40.23;37.21;100852.72;4819602;29;20455;-69
2022/04/29 13:36:16;;;;;;;9.70;5.33;;;;;;;40.24;37.70;100852.38;4819215;29;20441;-71
2022/04/29 13:38:43;;;;;;;12.23;4.90;;;;;;;40.26;37.80;100843.91;4805518;29;20479;-69
2022/04/29 13:41:09;;;;;;;16.33;7.30;;;;;;;40.24;38.04;100838.00;4819388;29;20498;-70
2022/04/29 13:43:36;;;;;;;10.20;4.67;;;;;;;40.21;37.31;100836.72;4819417;29;20462;-70
2022/04/29 13:46:05;;;;;;;15.83;4.40;;;;;;;40.27;37.77;100829.22;4819158;29;20434;-72
2022/04/29 13:48:32;;;;;;;12.00;4.47;;;;;;;40.25;37.98;100820.56;4818311;29;20446;-73
2022/04/29 13:50:59;;;;;;;9.60;5.00;;;;;;;40.36;37.00;100818.31;4819494;29;20430;-71
2022/04/29 13:53:25;;;;;;;9.70;4.50;;;;;;;40.37;36.34;100811.75;4819390;29;20821;-72
2022/04/29 13:55:52;;;;;;;18.63;5.07;;;;;;;40.41;37.26;100801.81;4805213;29;20537;-72
2022/04/29 13:58:20;;;;;;;11.13;5.00;;;;;;;40.38;37.35;100805.97;4819440;29;20438;-72
2022/04/29 14:00:48;;;;;;;11.20;5.73;;;;;;;40.53;37.34;100810.13;4819116;29;20469;-71
2022/04/29 14:03:16;;;;;;;19.03;5.47;;;;;;;40.55;37.20;100814.09;4803927;29;20460;-70
2022/04/29 14:05:43;;;;;;;10.93;5.07;;;;;;;40.56;36.98;100801.31;4803857;29;20517;-70
2022/04/29 14:08:09;;;;;;;13.70;5.47;;;;;;;40.66;36.72;100797.44;4803839;29;20445;-72
2022/04/29 14:10:36;;;;;;;21.60;7.40;;;;;;;40.62;37.35;100791.03;4819138;29;20434;-72
2022/04/29 14:13:04;;;;;;;8.83;4.60;;;;;;;40.74;37.16;100794.66;4818967;29;20474;-72
2022/04/29 14:15:30;;;;;;;22.63;5.60;;;;;;;40.77;36.46;100785.88;4819344;29;20434;-72
2022/04/29 14:17:56;;;;;;;16.03;5.27;;;;;;;40.85;36.59;100780.72;4818881;29;20434;-72
2022/04/29 14:20:24;;;;;;;10.57;4.90;;;;;;;40.84;36.43;100776.41;4805004;29;20465;-72
2022/04/29 14:22:50;;;;;;;13.60;4.40;;;;;;;40.85;36.12;100761.66;4803810;29;20414;-73
2022/04/29 14:25:16;;;;;;;21.73;6.47;;;;;;;40.84;36.13;100762.81;4818712;29;20579;-72
2022/04/29 14:27:43;;;;;;;10.80;5.00;;;;;;;40.95;36.53;100770.28;4803707;29;20434;-72
2022/04/29 14:30:10;;;;;;;13.73;6.57;;;;;;;40.99;36.29;100771.19;4818860;29;20430;-73
2022/04/29 14:32:37;;;;;;;19.80;6.87;;;;;;;41.06;36.38;100765.22;4818894;29;20419;-72
2022/04/29 14:35:06;;;;;;;11.73;5.83;;;;;;;41.04;36.05;100767.50;4803674;29;20434;-73
2022/04/29 14:37:32;;;;;;;18.70;6.20;;;;;;;41.11;35.81;100769.69;4818843;29;20501;-73
2022/04/29 14:40:03;;;;;;;14.80;5.37;;;;;;;41.18;35.75;100775.41;4818933;29;20579;-72
2022/04/29 14:42:29;;;;;;;17.90;8.10;;;;;;;41.24;35.71;100771.34;4818455;29;20460;-73
2022/04/29 14:44:56;;;;;;;15.57;5.93;;;;;;;41.32;35.21;100773.22;4818759;29;20418;-72
2022/04/29 14:47:22;;;;;;;21.93;6.10;;;;;;;41.38;34.81;100771.13;4818734;29;20860;-73
2022/04/29 14:49:49;;;;;;;12.70;5.20;;;;;;;41.29;35.11;100766.50;4818614;29;20506;-72
2022/04/29 14:52:15;;;;;;;9.03;5.10;;;;;;;41.30;35.14;100778.19;4818747;29;20454;-73
2022/04/29 14:54:42;;;;;;;14.10;6.77;;;;;;;41.41;34.75;100782.16;4818542;29;20876;-71
2022/04/29 14:57:09;;;;;;;9.70;4.37;;;;;;;41.44;35.15;100783.44;4805056;29;20433;-71
2022/04/29 14:59:35;;;;;;;10.27;4.33;;;;;;;41.43;34.59;100781.81;4803326;29;20453;-71
2022/04/29 15:02:02;;;;;;;20.17;6.10;;;;;;;41.46;34.58;100781.94;4818680;29;20505;-71
2022/04/29 15:04:28;;;;;;;11.50;5.00;;;;;;;41.52;34.95;100785.28;4818607;29;20513;-71
2022/04/29 15:06:55;;;;;;;10.33;7.03;;;;;;;41.52;35.57;100788.00;4818488;29;20449;-71
2022/04/29 15:17:36;;;;;;;16.30;5.63;;;;;;;41.50;35.80;100752.16;4804052;29;20973;-71
2022/04/29 15:20:03;;;;;;;12.50;5.50;;;;;;;41.48;36.03;100748.94;4804349;29;20469;-72
2022/04/29 15:22:29;;;;;;;11.60;5.50;;;;;;;41.54;36.00;100739.44;4818168;29;20438;-72
2022/04/29 15:24:55;;;;;;;11.83;5.73;;;;;;;41.57;36.11;100733.34;4816604;29;20484;-71
2022/04/29 15:27:21;;;;;;;16.13;6.20;;;;;;;41.56;35.74;100742.63;4802202;29;20426;-71
2022/04/29 15:29:47;;;;;;;12.30;4.73;;;;;;;41.60;35.63;100735.38;4817452;29;20431;-70
2022/04/29 15:32:14;;;;;;;11.50;4.97;;;;;;;41.59;35.85;100731.84;4804474;29;20438;-72
2022/04/29 15:34:40;;;;;;;14.37;5.20;;;;;;;41.63;35.64;100742.88;4815006;29;20998;-73
2022/04/29 15:37:07;;;;;;;10.53;5.77;;;;;;;41.53;35.22;100735.91;4801152;29;20806;-71
2022/04/29 15:39:33;;;;;;;9.60;5.37;;;;;;;41.45;35.59;100722.41;4817738;29;20490;-71
2022/04/29 15:42:02;;;;;;;14.10;5.70;;;;;;;41.34;36.39;100719.28;4818595;29;20439;-73
2022/04/29 15:44:31;;;;;;;15.60;6.00;;;;;;;41.32;36.00;100727.78;4818496;29;20437;-71
2022/04/29 15:46:58;;;;;;;12.90;6.73;;;;;;;41.32;36.48;100738.66;4808568;29;20446;-71
2022/04/29 15:49:25;;;;;;;12.87;6.40;;;;;;;41.48;35.68;100744.28;4805853;29;20870;-71
2022/04/29 15:51:51;;;;;;;14.73;6.33;;;;;;;41.59;35.80;100761.81;4808951;29;20433;-69
2022/04/29 15:54:18;;;;;;;15.57;6.63;;;;;;;41.60;36.19;100768.84;4822762;29;20485;-70
2022/04/29 15:56:44;;;;;;;15.90;4.87;;;;;;;41.66;36.05;100772.16;4822423;29;20425;-70
2022/04/29 15:59:10;;;;;;;17.47;5.07;;;;;;;41.67;35.50;100773.75;4808357;29;20550;-70
2022/04/29 16:01:36;;;;;;;12.30;7.33;;;;;;;41.57;35.44;100783.16;4823035;29;20472;-71
2022/04/29 16:04:03;;;;;;;13.80;6.10;;;;;;;41.57;36.19;100779.63;4823020;29;20463;-72
2022/04/29 16:06:31;;;;;;;15.10;7.63;;;;;;;41.66;35.69;100795.88;4823132;29;20434;-71
2022/04/29 16:09:02;;;;;;;12.10;5.67;;;;;;;41.57;35.79;100795.97;4822841;29;20821;-69
2022/04/29 16:11:28;;;;;;;11.70;5.43;;;;;;;41.58;36.02;100792.09;4810987;29;20978;-72
2022/04/29 16:13:55;;;;;;;11.73;6.20;;;;;;;41.59;35.37;100793.69;4805000;29;20426;-69
2022/04/29 16:16:21;;;;;;;17.83;6.67;;;;;;;41.59;35.48;100799.16;4818883;29;20429;-69
2022/04/29 16:21:34;;;;;;;17.70;5.90;;;;;;;41.63;35.21;100793.84;4822732;29;20907;-69
2022/04/29 16:26:46;;;;;;;15.13;6.30;;;;;;;41.54;35.64;100800.13;4823482;29;20454;-69
2022/04/29 16:29:14;;;;;;;13.10;5.10;;;;;;;41.47;35.98;100797.16;4822643;29;20429;-70
2022/04/29 16:31:40;;;;;;;19.00;5.70;;;;;;;41.26;36.10;100799.84;4822897;29;20464;-70
2022/04/29 16:34:07;;;;;;;14.50;6.53;;;;;;;41.22;36.51;100801.63;4805296;29;20465;-70
2022/04/29 16:36:33;;;;;;;6.87;4.17;;;;;;;41.20;36.39;100814.00;4808133;29;20455;-69
2022/04/29 16:39:00;;;;;;;12.77;4.97;;;;;;;41.11;36.84;100821.41;4823602;29;20413;-70
2022/04/29 16:41:26;;;;;;;11.97;5.47;;;;;;;41.08;36.74;100820.13;4823349;29;20456;-71
2022/04/29 16:43:53;;;;;;;11.00;4.87;;;;;;;41.00;37.07;100821.75;4823337;29;20453;-69
2022/04/29 16:46:19;;;;;;;14.90;6.50;;;;;;;40.95;36.88;100819.25;4824581;29;20413;-70
2022/04/29 16:48:46;;;;;;;13.57;6.00;;;;;;;40.86;37.07;100825.81;4807444;29;20444;-69
2022/04/29 16:51:12;;;;;;;15.30;6.47;;;;;;;40.84;37.69;100844.41;4819007;29;20827;-70
2022/04/29 16:53:39;;;;;;;22.73;7.43;;;;;;;40.84;37.26;100858.78;4804878;29;20529;-69
2022/04/29 16:56:07;;;;;;;11.50;5.70;;;;;;;40.85;37.13;100873.19;4805659;29;20430;-69
2022/04/29 16:58:44;;;;;;;9.13;4.90;;;;;;;40.73;37.28;100893.72;4805181;29;20434;-69
2022/04/29 17:01:15;;;;;;;9.50;5.83;;;;;;;40.68;37.44;100904.75;4805026;29;20470;-68
2022/04/29 17:03:42;;;;;;;17.33;5.93;;;;;;;40.71;36.95;100923.16;4804938;29;20446;-69
2022/04/29 17:06:08;;;;;;;16.30;8.40;;;;;;;40.67;37.26;100918.69;4819157;29;20434;-69
2022/04/29 17:08:35;;;;;;;14.23;5.93;;;;;;;40.67;36.99;100914.03;4819961;29;20587;-69
2022/04/29 17:11:01;;;;;;;12.50;5.47;;;;;;;40.65;37.67;100912.78;4819936;29;20425;-71
2022/04/29 17:13:29;;;;;;;18.80;8.60;;;;;;;40.56;37.65;100910.06;4819951;29;20422;-69
2022/04/29 17:15:56;;;;;;;16.67;6.93;;;;;;;40.52;37.39;100909.13;4820016;29;20450;-69
2022/04/29 17:18:23;;;;;;;16.00;6.07;;;;;;;40.50;37.12;100917.59;4804660;29;20453;-68
2022/04/29 17:20:50;;;;;;;13.70;5.53;;;;;;;40.49;37.60;100909.75;4822657;29;20476;-70
2022/04/29 17:23:17;;;;;;;17.10;7.67;;;;;;;40.49;37.51;100907.03;4822266;29;20430;-70
2022/04/29 17:25:46;;;;;;;12.37;4.97;;;;;;;40.47;37.53;100909.28;4809818;29;20465;-69
2022/04/29 17:28:13;;;;;;;11.60;7.07;;;;;;;40.44;37.43;100916.13;4818510;29;20547;-69
2022/04/29 17:30:41;;;;;;;16.10;5.43;;;;;;;40.36;37.82;100916.16;4806023;29;20951;-69
2022/04/29 17:33:07;;;;;;;14.10;7.00;;;;;;;40.22;38.01;100919.84;4821560;29;20524;-69
2022/04/29 17:35:33;;;;;;;12.63;5.03;;;;;;;40.21;38.53;100928.31;4807920;29;20457;-74
2022/04/29 17:37:59;;;;;;;36.77;11.37;;;;;;;40.27;38.20;100935.19;4807832;29;20483;-70
2022/04/29 17:43:10;;;;;;;131.90;71.97;;;;;;;40.31;38.09;100943.50;4816181;29;20433;-69
2022/04/29 17:45:36;;;;;;;21.30;11.00;;;;;;;39.83;38.35;100949.81;4822708;29;20446;-74
2022/04/29 17:48:06;;;;;;;29.47;11.40;;;;;;;39.43;36.63;100982.44;4805427;29;20457;-73
2022/04/29 17:50:34;;;;;;;28.73;11.70;;;;;;;39.09;35.74;100983.06;4805338;29;20442;-69
2022/04/29 17:53:00;;;;;;;23.77;12.50;;;;;;;38.91;36.72;100988.38;4834395;29;20796;-70
2022/04/29 17:55:29;;;;;;;24.00;11.67;;;;;;;38.34;38.78;100995.44;4821764;29;20430;-71
2022/04/29 17:57:57;;;;;;;19.73;9.97;;;;;;;38.19;38.40;101001.97;4805643;29;20504;-71
2022/04/29 18:00:24;;;;;;;26.53;12.10;;;;;;;38.14;39.00;101002.06;4820867;29;20464;-71
2022/04/29 18:02:50;;;;;;;23.33;11.57;;;;;;;38.17;38.33;101013.09;4821425;29;20424;-70
2022/04/29 18:05:17;;;;;;;19.67;10.33;;;;;;;37.89;38.40;101008.84;4823199;29;20955;-73
2022/04/29 18:07:44;;;;;;;19.50;10.97;;;;;;;38.09;38.63;101015.72;4821767;29;20440;-71
2022/04/29 18:10:12;;;;;;;28.73;13.80;;;;;;;38.01;38.47;101019.97;4826161;29;20418;-73
2022/04/29 18:12:39;;;;;;;29.20;14.97;;;;;;;38.05;38.41;101014.72;4807103;29;20434;-70
2022/04/29 18:15:06;;;;;;;22.30;11.50;;;;;;;38.07;38.38;101024.16;4818785;29;20434;-72
2022/04/29 18:17:33;;;;;;;19.73;11.40;;;;;;;38.01;38.43;101025.38;4818233;29;20473;-74
2022/04/29 18:19:59;;;;;;;20.67;11.20;;;;;;;38.17;38.45;101017.72;4816859;29;20426;-72
2022/04/29 18:22:29;;;;;;;28.90;12.27;;;;;;;38.21;38.19;101024.13;4804844;29;20407;-72
2022/04/29 18:24:55;;;;;;;25.97;12.90;;;;;;;38.24;38.01;101023.50;4803100;29;20502;-72
2022/04/29 18:27:21;;;;;;;23.50;11.33;;;;;;;38.29;37.74;101022.63;4810986;29;20438;-72
2022/04/29 18:29:47;;;;;;;18.77;9.97;;;;;;;38.39;37.62;101023.22;4822878;29;20430;-75
2022/04/29 18:32:13;;;;;;;25.27;11.67;;;;;;;38.29;37.03;101030.75;4821730;29;20426;-69
2022/04/29 18:34:39;;;;;;;21.57;12.10;;;;;;;38.28;37.36;101026.44;4815017;29;20433;-72
2022/04/29 18:37:05;;;;;;;18.27;12.37;;;;;;;38.35;37.38;101034.97;4818544;29;20456;-71
2022/04/29 18:39:32;;;;;;;31.10;12.60;;;;;;;38.35;37.46;101043.88;4804492;29;20403;-71
2022/04/29 18:41:59;;;;;;;26.90;13.13;;;;;;;38.48;37.30;101039.53;4821116;29;20453;-72
2022/04/29 18:44:26;;;;;;;19.93;12.10;;;;;;;38.50;37.39;101036.53;4821671;29;20436;-72
2022/04/29 18:46:52;;;;;;;24.10;11.93;;;;;;;38.53;36.74;101038.63;4821528;29;20429;-71
2022/04/29 18:49:22;;;;;;;22.00;13.37;;;;;;;38.47;36.66;101037.13;4821498;29;20482;-72
2022/04/29 18:51:48;;;;;;;32.53;14.47;;;;;;;38.51;36.77;101041.66;4821493;29;20535;-72
2022/04/29 18:54:15;;;;;;;24.10;13.83;;;;;;;38.51;37.04;101038.16;4821332;29;20840;-74
2022/04/29 18:56:42;;;;;;;26.70;13.37;;;;;;;38.65;36.78;101034.25;4821966;29;20998;-72
2022/04/29 18:59:08;;;;;;;28.10;14.67;;;;;;;38.70;36.85;101036.06;4822197;29;21030;-73
2022/04/29 19:01:34;;;;;;;29.63;14.87;;;;;;;38.80;36.60;101040.50;4822924;29;20454;-71
2022/04/29 19:04:01;;;;;;;28.07;14.00;;;;;;;38.80;37.08;101037.78;4802752;29;20429;-73
2022/04/29 19:06:27;;;;;;;20.77;13.30;;;;;;;38.93;36.55;101036.91;4802565;29;20438;-71
2022/04/29 19:08:54;;;;;;;28.30;13.37;;;;;;;38.90;37.02;101032.09;4807896;29;20429;-74
2022/04/29 19:11:20;;;;;;;21.77;16.63;;;;;;;38.64;37.11;101027.25;4817318;29;20796;-72
2022/04/29 19:13:46;;;;;;;24.53;14.80;;;;;;;38.25;37.44;101029.75;4804385;29;20434;-71
2022/04/29 19:16:14;;;;;;;30.07;16.80;;;;;;;38.05;38.30;101033.69;4802112;29;20533;-75
2022/04/29 19:18:40;;;;;;;28.00;16.13;;;;;;;38.16;38.25;101044.00;4787453;29;20470;-73
2022/04/29 19:21:07;;;;;;;24.40;15.77;;;;;;;38.28;37.96;101048.13;4803378;29;20462;-73
2022/04/29 19:23:33;;;;;;;23.80;15.43;;;;;;;38.49;37.88;101054.72;4804438;29;20424;-78
2022/04/29 19:26:00;;;;;;;33.33;20.23;;;;;;;38.69;37.44;101051.53;4802969;29;20519;-72
2022/04/29 19:28:26;;;;;;;30.00;18.00;;;;;;;38.75;37.35;101049.53;4818354;29;20458;-72
2022/04/29 19:30:53;;;;;;;25.17;18.17;;;;;;;38.79;36.77;101041.56;4807030;29;20414;-74